Time;durP1;ratioP1;P1;durP2;ratioP2;P2;SDS_P1;SDS_P2;PMS_P1;PMS_P2;Temp;Humidity;BMP_temperature;BMP_pressure;BME280_temperature;BME280_humidity;BME280_pressure;Samples;Min_cycle;Max_cycle;Signal;HPM_P1;HPM_P2
2023/09/14 00:01:12;;;;;;;20.77;19.37;;;;;;;;;;5018456;28;20434;-89
2023/09/14 00:03:39;;;;;;;21.53;20.00;;;;;;;;;;5018387;28;20978;-89
2023/09/14 00:06:06;;;;;;;20.37;19.20;;;;;;;;;;5017409;28;20476;-89
2023/09/14 00:08:34;;;;;;;21.90;20.47;;;;;;;;;;5018310;28;20492;-90
2023/09/14 00:11:04;;;;;;;21.00;19.70;;;;;;;;;;5017049;28;20490;-89
2023/09/14 00:13:32;;;;;;;21.23;19.80;;;;;;;;;;5017367;28;21307;-90
2023/09/14 00:15:59;;;;;;;21.30;19.70;;;;;;;;;;5017047;28;20452;-90
2023/09/14 00:18:27;;;;;;;20.60;19.23;;;;;;;;;;5017076;28;20451;-90
2023/09/14 00:20:56;;;;;;;21.57;19.97;;;;;;;;;;5017213;28;20427;-89
2023/09/14 00:23:23;;;;;;;20.73;19.43;;;;;;;;;;5017570;28;20442;-89
2023/09/14 00:25:50;;;;;;;20.53;19.23;;;;;;;;;;5016570;28;20415;-89
2023/09/14 00:28:18;;;;;;;20.53;19.20;;;;;;;;;;5017322;28;20414;-89
2023/09/14 00:30:46;;;;;;;20.37;18.87;;;;;;;;;;5016921;28;20452;-89
2023/09/14 00:33:13;;;;;;;20.80;19.60;;;;;;;;;;5016421;28;20499;-89
2023/09/14 00:35:40;;;;;;;20.73;19.43;;;;;;;;;;5016181;28;20440;-90
2023/09/14 00:38:07;;;;;;;21.60;19.63;;;;;;;;;;5016547;28;20436;-89
2023/09/14 00:40:34;;;;;;;20.10;18.90;;;;;;;;;;5017337;28;20839;-89
2023/09/14 00:43:01;;;;;;;20.73;19.20;;;;;;;;;;5017270;28;20496;-90
2023/09/14 00:45:29;;;;;;;20.93;19.60;;;;;;;;;;5018265;28;20440;-90
2023/09/14 00:47:59;;;;;;;20.37;19.17;;;;;;;;;;5017548;28;20444;-90
2023/09/14 00:50:28;;;;;;;21.53;20.00;;;;;;;;;;5018036;28;20522;-90
2023/09/14 00:52:57;;;;;;;20.93;19.83;;;;;;;;;;5017305;28;20447;-90
2023/09/14 00:55:25;;;;;;;20.80;19.43;;;;;;;;;;5017727;28;20445;-90
2023/09/14 00:57:52;;;;;;;21.63;19.97;;;;;;;;;;5017055;28;20436;-90
2023/09/14 01:00:26;;;;;;;20.40;19.30;;;;;;;;;;5017266;28;20484;-90
2023/09/14 01:02:54;;;;;;;20.50;19.30;;;;;;;;;;5017637;28;20447;-89
2023/09/14 01:05:23;;;;;;;20.73;19.23;;;;;;;;;;5017744;28;20471;-89
2023/09/14 01:07:50;;;;;;;20.57;19.37;;;;;;;;;;5016517;28;20420;-89
2023/09/14 01:10:17;;;;;;;23.13;21.50;;;;;;;;;;5017210;28;20701;-89
2023/09/14 01:12:44;;;;;;;20.70;19.50;;;;;;;;;;5016942;28;20462;-89
2023/09/14 01:15:17;;;;;;;20.53;19.43;;;;;;;;;;5003486;28;20432;-90
2023/09/14 01:17:49;;;;;;;20.67;19.47;;;;;;;;;;4996376;28;20400;-90
2023/09/14 01:20:34;;;;;;;20.93;19.63;;;;;;;;;;4997297;28;20495;-90
2023/09/14 01:23:10;;;;;;;19.80;18.73;;;;;;;;;;5003092;28;20467;-90
2023/09/14 01:25:42;;;;;;;20.90;19.53;;;;;;;;;;5015793;28;20454;-91
2023/09/14 01:28:09;;;;;;;19.37;18.20;;;;;;;;;;5015963;28;20414;-90
2023/09/14 01:30:37;;;;;;;21.53;20.00;;;;;;;;;;4997101;28;20488;-90
2023/09/14 01:33:05;;;;;;;20.23;19.13;;;;;;;;;;4996720;28;20440;-90
2023/09/14 01:35:35;;;;;;;20.77;19.37;;;;;;;;;;4995821;28;20443;-90
2023/09/14 01:38:02;;;;;;;21.03;19.20;;;;;;;;;;4995403;28;20477;-90
2023/09/14 01:40:29;;;;;;;20.57;19.27;;;;;;;;;;4995719;28;20427;-91
2023/09/14 01:42:58;;;;;;;20.77;19.50;;;;;;;;;;4996342;28;20954;-90
2023/09/14 01:45:26;;;;;;;20.27;19.00;;;;;;;;;;4996956;28;20517;-90
2023/09/14 01:47:53;;;;;;;20.23;18.83;;;;;;;;;;4996462;28;20419;-90
2023/09/14 01:50:24;;;;;;;20.50;19.03;;;;;;;;;;4996372;28;20478;-89
2023/09/14 01:52:52;;;;;;;21.10;19.47;;;;;;;;;;4996596;28;20473;-89
2023/09/14 01:55:19;;;;;;;20.53;19.23;;;;;;;;;;4996397;28;20500;-89
2023/09/14 01:57:46;;;;;;;21.63;19.87;;;;;;;;;;4995531;28;20442;-89
2023/09/14 02:00:16;;;;;;;20.90;19.50;;;;;;;;;;4995884;28;20442;-89
2023/09/14 02:02:43;;;;;;;20.83;19.70;;;;;;;;;;4996488;28;20480;-88
2023/09/14 02:05:10;;;;;;;19.90;18.70;;;;;;;;;;4995539;28;20447;-89
2023/09/14 02:07:37;;;;;;;20.90;19.60;;;;;;;;;;5001806;28;20468;-89
2023/09/14 02:10:04;;;;;;;20.83;19.43;;;;;;;;;;5016016;28;20487;-89
2023/09/14 02:12:32;;;;;;;21.27;20.07;;;;;;;;;;5015890;28;20435;-88
2023/09/14 02:14:59;;;;;;;20.90;19.10;;;;;;;;;;5016176;28;20895;-89
2023/09/14 02:17:29;;;;;;;22.07;19.80;;;;;;;;;;5015400;28;20921;-89
2023/09/14 02:19:56;;;;;;;19.60;18.47;;;;;;;;;;5015785;28;20431;-89
2023/09/14 02:22:23;;;;;;;20.87;19.47;;;;;;;;;;5014960;28;20480;-90
2023/09/14 02:24:51;;;;;;;20.77;19.50;;;;;;;;;;5015930;28;20419;-89
2023/09/14 02:27:18;;;;;;;19.53;18.23;;;;;;;;;;5015231;28;20922;-89
2023/09/14 02:29:45;;;;;;;20.13;18.60;;;;;;;;;;5016100;28;20480;-89
2023/09/14 02:32:12;;;;;;;20.90;19.80;;;;;;;;;;5016063;28;20491;-89
2023/09/14 02:34:40;;;;;;;20.23;18.93;;;;;;;;;;5015881;28;20448;-89
2023/09/14 02:37:07;;;;;;;20.63;19.33;;;;;;;;;;5014721;28;20437;-89
2023/09/14 02:39:34;;;;;;;21.17;19.60;;;;;;;;;;5015135;28;20934;-89
2023/09/14 02:42:01;;;;;;;21.77;20.50;;;;;;;;;;5015480;28;20485;-89
2023/09/14 02:44:28;;;;;;;21.60;20.10;;;;;;;;;;5015222;28;20416;-89
2023/09/14 02:46:56;;;;;;;20.13;18.80;;;;;;;;;;5014618;28;20472;-89
2023/09/14 02:49:23;;;;;;;21.27;19.93;;;;;;;;;;5018124;28;20503;-89
2023/09/14 02:51:51;;;;;;;21.00;19.47;;;;;;;;;;5019666;28;20947;-89
2023/09/14 02:54:19;;;;;;;21.20;19.90;;;;;;;;;;5019837;28;20528;-89
2023/09/14 02:56:47;;;;;;;20.27;19.13;;;;;;;;;;5018918;28;20451;-89
2023/09/14 02:59:15;;;;;;;20.37;19.37;;;;;;;;;;5017576;28;20469;-89
2023/09/14 03:01:43;;;;;;;20.47;19.07;;;;;;;;;;5015953;28;20494;-89
2023/09/14 03:04:10;;;;;;;19.13;18.13;;;;;;;;;;4999930;28;20433;-89
2023/09/14 03:06:38;;;;;;;19.27;18.07;;;;;;;;;;4999740;28;20434;-89
2023/09/14 03:09:07;;;;;;;20.80;19.30;;;;;;;;;;5000469;28;20457;-89
2023/09/14 03:11:34;;;;;;;18.77;17.67;;;;;;;;;;5000501;28;21108;-89
2023/09/14 03:14:01;;;;;;;20.10;18.70;;;;;;;;;;4999742;28;20416;-89
2023/09/14 03:16:28;;;;;;;19.70;18.57;;;;;;;;;;5004753;28;20431;-89
2023/09/14 03:18:55;;;;;;;19.93;18.93;;;;;;;;;;5000042;28;20464;-89
2023/09/14 03:21:23;;;;;;;20.37;19.17;;;;;;;;;;5011045;28;20445;-89
2023/09/14 03:23:51;;;;;;;19.23;18.03;;;;;;;;;;5019214;28;20468;-89
2023/09/14 03:26:19;;;;;;;20.20;18.63;;;;;;;;;;5018185;28;20928;-89
2023/09/14 03:28:47;;;;;;;20.80;19.40;;;;;;;;;;5011581;28;20808;-89
2023/09/14 03:31:14;;;;;;;19.87;18.67;;;;;;;;;;5018196;28;20480;-89
2023/09/14 03:33:41;;;;;;;20.40;18.93;;;;;;;;;;5018976;28;20486;-89
2023/09/14 03:36:08;;;;;;;20.23;19.03;;;;;;;;;;5014046;28;20476;-89
2023/09/14 03:38:35;;;;;;;20.23;18.90;;;;;;;;;;4999672;28;20440;-88
2023/09/14 03:41:02;;;;;;;20.57;19.37;;;;;;;;;;4998925;28;20432;-89
2023/09/14 03:43:31;;;;;;;20.60;19.20;;;;;;;;;;4998999;28;20447;-89
2023/09/14 03:45:58;;;;;;;20.93;19.63;;;;;;;;;;4998428;28;20434;-89
2023/09/14 03:48:25;;;;;;;21.23;19.57;;;;;;;;;;4999251;28;20424;-89
2023/09/14 03:50:57;;;;;;;19.93;18.57;;;;;;;;;;4998339;28;20459;-89
2023/09/14 03:53:24;;;;;;;21.33;19.93;;;;;;;;;;4998772;28;20508;-88
2023/09/14 03:55:51;;;;;;;21.53;20.00;;;;;;;;;;5005661;28;20484;-89
2023/09/14 03:58:18;;;;;;;20.63;19.40;;;;;;;;;;5002231;28;20427;-90
2023/09/14 04:00:46;;;;;;;21.03;19.93;;;;;;;;;;4998204;28;20933;-89
2023/09/14 04:03:13;;;;;;;21.10;19.80;;;;;;;;;;4998547;28;20439;-89
2023/09/14 04:05:40;;;;;;;20.77;19.47;;;;;;;;;;4998968;28;20424;-90
2023/09/14 04:08:08;;;;;;;21.63;19.90;;;;;;;;;;5017863;28;20387;-89
2023/09/14 04:10:37;;;;;;;21.00;19.37;;;;;;;;;;5018244;28;20527;-89
2023/09/14 04:13:23;;;;;;;22.67;20.70;;;;;;;;;;5017052;28;20538;-89
2023/09/14 04:15:51;;;;;;;22.93;21.33;;;;;;;;;;5017685;28;20930;-89
2023/09/14 04:18:19;;;;;;;22.07;20.77;;;;;;;;;;5017976;28;20419;-89
2023/09/14 04:20:47;;;;;;;22.73;21.33;;;;;;;;;;5018399;28;20412;-89
2023/09/14 04:23:14;;;;;;;23.37;21.77;;;;;;;;;;5017615;28;21005;-89
2023/09/14 04:25:44;;;;;;;21.93;20.60;;;;;;;;;;5013192;28;20456;-90
2023/09/14 04:28:12;;;;;;;22.33;20.90;;;;;;;;;;5018276;28;20446;-89
2023/09/14 04:30:42;;;;;;;23.10;21.60;;;;;;;;;;5017499;28;20451;-89
2023/09/14 04:33:10;;;;;;;22.27;20.60;;;;;;;;;;5017687;28;20443;-89
2023/09/14 04:35:37;;;;;;;21.43;20.03;;;;;;;;;;5017634;28;20856;-89
2023/09/14 04:38:05;;;;;;;22.53;20.97;;;;;;;;;;5017211;28;20427;-89
2023/09/14 04:40:32;;;;;;;22.87;21.27;;;;;;;;;;5015913;28;20462;-89
2023/09/14 04:42:59;;;;;;;22.97;20.90;;;;;;;;;;5016416;28;20468;-89
2023/09/14 04:45:26;;;;;;;21.73;20.30;;;;;;;;;;5016814;28;20506;-89
2023/09/14 04:47:53;;;;;;;22.00;20.50;;;;;;;;;;5016951;28;20449;-88
2023/09/14 04:50:21;;;;;;;20.60;19.30;;;;;;;;;;5017741;28;20959;-89
2023/09/14 04:52:48;;;;;;;21.43;20.10;;;;;;;;;;5015361;28;20492;-89
2023/09/14 04:55:15;;;;;;;22.33;20.83;;;;;;;;;;5007074;28;20936;-89
2023/09/14 04:57:42;;;;;;;21.30;19.90;;;;;;;;;;4996985;28;20435;-89
2023/09/14 05:00:10;;;;;;;22.23;20.83;;;;;;;;;;4997989;28;20515;-89
2023/09/14 05:02:37;;;;;;;21.70;20.50;;;;;;;;;;4997258;28;20460;-89
2023/09/14 05:05:06;;;;;;;22.17;20.67;;;;;;;;;;4997552;28;20445;-88
2023/09/14 05:07:34;;;;;;;21.57;20.10;;;;;;;;;;4997928;28;20457;-88
2023/09/14 05:10:01;;;;;;;22.80;21.13;;;;;;;;;;4999110;28;20488;-88
2023/09/14 05:12:29;;;;;;;21.90;20.17;;;;;;;;;;4997786;28;20498;-88
2023/09/14 05:14:56;;;;;;;23.60;21.80;;;;;;;;;;4998530;28;20436;-88
2023/09/14 05:17:23;;;;;;;22.67;20.73;;;;;;;;;;4996515;28;20502;-88
2023/09/14 05:19:50;;;;;;;21.73;20.10;;;;;;;;;;5001615;28;20435;-88
2023/09/14 05:22:17;;;;;;;21.77;20.30;;;;;;;;;;5017931;28;20442;-88
2023/09/14 05:24:46;;;;;;;23.00;21.50;;;;;;;;;;5017690;28;20441;-88
2023/09/14 05:27:13;;;;;;;22.20;20.70;;;;;;;;;;5000198;28;20452;-89
2023/09/14 05:29:40;;;;;;;23.00;21.23;;;;;;;;;;5007368;28;20455;-89
2023/09/14 05:32:07;;;;;;;22.17;20.67;;;;;;;;;;5016562;28;20459;-89
2023/09/14 05:34:34;;;;;;;21.47;20.17;;;;;;;;;;5015585;28;20804;-80
2023/09/14 05:37:01;;;;;;;21.47;19.97;;;;;;;;;;5003081;28;20485;-87
2023/09/14 05:39:28;;;;;;;23.83;22.17;;;;;;;;;;5001879;28;20516;-80
2023/09/14 05:41:56;;;;;;;23.00;21.27;;;;;;;;;;5015574;28;20549;-84
2023/09/14 05:44:24;;;;;;;22.33;20.93;;;;;;;;;;5012454;28;20449;-88
2023/09/14 05:46:51;;;;;;;21.97;20.53;;;;;;;;;;5017220;28;20426;-88
2023/09/14 05:49:18;;;;;;;21.73;20.50;;;;;;;;;;5017916;28;20441;-88
2023/09/14 05:51:45;;;;;;;23.27;21.23;;;;;;;;;;5017734;28;21051;-88
2023/09/14 05:54:12;;;;;;;22.20;20.43;;;;;;;;;;5018410;28;20510;-89
2023/09/14 05:56:39;;;;;;;22.03;20.27;;;;;;;;;;5017593;28;20494;-90
2023/09/14 05:59:08;;;;;;;22.03;20.40;;;;;;;;;;5018301;28;20403;-86
2023/09/14 06:01:36;;;;;;;21.90;20.30;;;;;;;;;;5017699;28;20452;-88
2023/09/14 06:04:03;;;;;;;23.60;21.80;;;;;;;;;;5018059;28;20464;-88
2023/09/14 06:06:30;;;;;;;22.37;20.60;;;;;;;;;;5017519;28;20415;-88
2023/09/14 06:08:57;;;;;;;21.57;20.03;;;;;;;;;;5018224;28;20431;-88
2023/09/14 06:11:24;;;;;;;21.70;20.30;;;;;;;;;;5018288;28;20992;-88
2023/09/14 06:13:51;;;;;;;22.00;20.57;;;;;;;;;;5017653;28;20822;-88
2023/09/14 06:16:19;;;;;;;21.73;20.40;;;;;;;;;;5017501;28;20441;-88
2023/09/14 06:18:47;;;;;;;22.03;20.43;;;;;;;;;;5017984;28;20431;-88
2023/09/14 06:21:14;;;;;;;22.13;20.47;;;;;;;;;;5018254;28;20412;-88
2023/09/14 06:23:41;;;;;;;22.33;20.20;;;;;;;;;;5017437;28;20459;-87
2023/09/14 06:26:08;;;;;;;21.43;19.93;;;;;;;;;;5016476;28;20435;-88
2023/09/14 06:28:35;;;;;;;21.47;19.60;;;;;;;;;;5017727;28;20418;-86
2023/09/14 06:31:02;;;;;;;21.90;20.17;;;;;;;;;;5005207;28;20463;-88
2023/09/14 06:33:31;;;;;;;21.17;19.67;;;;;;;;;;5006889;28;20531;-87
2023/09/14 06:35:58;;;;;;;20.37;19.07;;;;;;;;;;4997791;28;20473;-87
2023/09/14 06:38:25;;;;;;;21.63;19.93;;;;;;;;;;5010754;28;20439;-87
2023/09/14 06:40:52;;;;;;;22.40;20.70;;;;;;;;;;5010302;28;20756;-88
2023/09/14 06:43:19;;;;;;;22.37;20.77;;;;;;;;;;5009805;28;20473;-88
2023/09/14 06:45:46;;;;;;;22.57;20.80;;;;;;;;;;4999862;28;20442;-88
2023/09/14 06:48:13;;;;;;;22.00;20.20;;;;;;;;;;5018648;28;20431;-88
2023/09/14 06:50:41;;;;;;;21.57;20.03;;;;;;;;;;5005801;28;20487;-88
2023/09/14 06:53:10;;;;;;;21.40;19.70;;;;;;;;;;4998401;28;20439;-88
2023/09/14 06:55:38;;;;;;;21.30;19.50;;;;;;;;;;5006743;28;20458;-85
2023/09/14 06:58:05;;;;;;;20.53;19.23;;;;;;;;;;5019045;28;20411;-85
2023/09/14 07:00:33;;;;;;;21.47;19.87;;;;;;;;;;5016707;28;20415;-86
2023/09/14 07:03:00;;;;;;;21.67;20.10;;;;;;;;;;5015343;28;20427;-86
2023/09/14 07:05:27;;;;;;;21.57;20.10;;;;;;;;;;5016193;28;20452;-80
2023/09/14 07:07:56;;;;;;;21.83;20.03;;;;;;;;;;5016686;28;20432;-83
2023/09/14 07:10:23;;;;;;;19.70;18.40;;;;;;;;;;5017270;28;20519;-84
2023/09/14 07:12:50;;;;;;;20.97;19.37;;;;;;;;;;5018077;28;20443;-84
2023/09/14 07:15:17;;;;;;;20.40;18.90;;;;;;;;;;5017575;28;20507;-82
2023/09/14 07:17:44;;;;;;;19.80;18.10;;;;;;;;;;5016808;28;20430;-83
2023/09/14 07:20:12;;;;;;;19.80;18.47;;;;;;;;;;5017249;28;20453;-84
2023/09/14 07:22:39;;;;;;;21.10;19.33;;;;;;;;;;5017071;28;21016;-85
2023/09/14 07:25:09;;;;;;;20.23;18.43;;;;;;;;;;5016307;28;20422;-88
2023/09/14 07:27:36;;;;;;;20.47;18.83;;;;;;;;;;5014784;28;20461;-83
2023/09/14 07:30:03;;;;;;;20.80;19.10;;;;;;;;;;5017878;28;20441;-83
2023/09/14 07:32:30;;;;;;;20.53;19.00;;;;;;;;;;5019028;28;20470;-85
2023/09/14 07:35:00;;;;;;;19.70;18.10;;;;;;;;;;5019988;28;20435;-85
2023/09/14 07:37:27;;;;;;;25.47;19.23;;;;;;;;;;5021701;28;20424;-84
2023/09/14 07:39:54;;;;;;;20.00;18.30;;;;;;;;;;5014346;28;20509;-85
2023/09/14 07:42:22;;;;;;;19.83;18.50;;;;;;;;;;5020997;28;20459;-85
2023/09/14 07:44:49;;;;;;;22.23;20.37;;;;;;;;;;5031070;28;20440;-85
2023/09/14 07:47:16;;;;;;;20.30;19.03;;;;;;;;;;5034312;28;20475;-85
2023/09/14 07:49:45;;;;;;;21.10;19.33;;;;;;;;;;5035346;28;20410;-85
2023/09/14 07:52:12;;;;;;;21.37;19.17;;;;;;;;;;5020632;28;20519;-84
2023/09/14 07:54:39;;;;;;;21.07;19.60;;;;;;;;;;5001905;28;20427;-84
2023/09/14 07:57:06;;;;;;;21.43;19.33;;;;;;;;;;5001019;28;20477;-83
2023/09/14 07:59:35;;;;;;;20.50;18.57;;;;;;;;;;4999740;28;20408;-76
2023/09/14 08:02:02;;;;;;;20.07;18.67;;;;;;;;;;5015817;28;20473;-81
2023/09/14 08:04:29;;;;;;;20.60;18.90;;;;;;;;;;5016832;28;20431;-75
2023/09/14 08:06:56;;;;;;;22.10;20.10;;;;;;;;;;5013073;28;20937;-77
2023/09/14 08:09:23;;;;;;;22.60;20.30;;;;;;;;;;5014628;28;20453;-80
2023/09/14 08:11:50;;;;;;;20.53;18.83;;;;;;;;;;5015122;28;20527;-80
2023/09/14 08:14:17;;;;;;;21.20;19.37;;;;;;;;;;5015016;28;20580;-81
2023/09/14 08:16:46;;;;;;;22.43;20.43;;;;;;;;;;5015117;28;20427;-79
2023/09/14 08:19:13;;;;;;;21.30;19.60;;;;;;;;;;5017323;28;20949;-80
2023/09/14 08:21:40;;;;;;;21.73;20.23;;;;;;;;;;5013310;28;20438;-77
2023/09/14 08:24:07;;;;;;;21.00;19.50;;;;;;;;;;5013250;28;20453;-79
2023/09/14 08:26:34;;;;;;;21.43;19.53;;;;;;;;;;5012403;28;20467;-77
2023/09/14 08:29:01;;;;;;;21.10;19.50;;;;;;;;;;5014067;28;20453;-78
2023/09/14 08:31:28;;;;;;;21.53;19.97;;;;;;;;;;5013384;28;21159;-77
2023/09/14 08:33:57;;;;;;;21.80;20.40;;;;;;;;;;5012935;28;20419;-76
2023/09/14 08:36:24;;;;;;;21.77;20.13;;;;;;;;;;5013538;28;20454;-79
2023/09/14 08:38:51;;;;;;;21.27;19.97;;;;;;;;;;5017542;28;20426;-80
2023/09/14 08:41:22;;;;;;;21.60;20.20;;;;;;;;;;5014516;28;20467;-80
2023/09/14 08:43:49;;;;;;;20.97;19.67;;;;;;;;;;5014393;28;20476;-80
2023/09/14 08:46:17;;;;;;;20.10;18.90;;;;;;;;;;5015026;28;20447;-80
2023/09/14 08:48:45;;;;;;;21.10;19.60;;;;;;;;;;5013230;28;20517;-80
2023/09/14 08:51:14;;;;;;;20.13;18.87;;;;;;;;;;5013113;28;20461;-81
2023/09/14 08:53:43;;;;;;;21.00;19.63;;;;;;;;;;5013980;28;20483;-80
2023/09/14 08:56:13;;;;;;;20.40;18.70;;;;;;;;;;5013885;28;20457;-79
2023/09/14 08:58:41;;;;;;;20.70;19.40;;;;;;;;;;5013644;28;20480;-85
2023/09/14 09:01:10;;;;;;;20.40;19.20;;;;;;;;;;5011917;28;20439;-79
2023/09/14 09:03:37;;;;;;;21.37;19.70;;;;;;;;;;5014364;28;20484;-79
2023/09/14 09:06:04;;;;;;;22.47;20.53;;;;;;;;;;5013818;28;20884;-78
2023/09/14 09:08:33;;;;;;;21.47;19.83;;;;;;;;;;5011734;28;20495;-78
2023/09/14 09:11:02;;;;;;;21.80;20.23;;;;;;;;;;5008996;28;20559;-77
2023/09/14 09:13:33;;;;;;;21.10;19.60;;;;;;;;;;5013238;28;20451;-77
2023/09/14 09:16:00;;;;;;;21.40;19.90;;;;;;;;;;5011586;28;20475;-78
2023/09/14 09:18:27;;;;;;;22.43;20.87;;;;;;;;;;5012958;28;20429;-77
2023/09/14 09:20:54;;;;;;;21.40;19.77;;;;;;;;;;5012847;28;20791;-76
2023/09/14 09:23:22;;;;;;;21.50;20.20;;;;;;;;;;5012346;28;20842;-78
2023/09/14 09:25:53;;;;;;;21.60;19.87;;;;;;;;;;5012106;28;20426;-77
2023/09/14 09:28:20;;;;;;;21.43;19.93;;;;;;;;;;5012967;28;20437;-77
2023/09/14 09:30:54;;;;;;;21.20;19.87;;;;;;;;;;5012706;28;20429;-77
2023/09/14 09:33:33;;;;;;;23.43;21.63;;;;;;;;;;5012066;28;20479;-78
2023/09/14 09:36:01;;;;;;;21.80;20.40;;;;;;;;;;5011209;28;20446;-77
2023/09/14 09:38:29;;;;;;;22.17;20.63;;;;;;;;;;5011648;28;20480;-77
2023/09/14 09:40:58;;;;;;;22.37;20.87;;;;;;;;;;5012317;28;20545;-77
2023/09/14 09:43:25;;;;;;;21.23;20.03;;;;;;;;;;5011850;28;21031;-77
2023/09/14 09:45:54;;;;;;;22.17;20.57;;;;;;;;;;5011521;28;20452;-77
2023/09/14 09:48:21;;;;;;;21.70;20.10;;;;;;;;;;5012050;28;20460;-77
2023/09/14 09:50:48;;;;;;;21.70;20.30;;;;;;;;;;5012183;28;20852;-76
2023/09/14 09:53:15;;;;;;;22.73;20.93;;;;;;;;;;5011670;28;21314;-77
2023/09/14 09:55:44;;;;;;;23.80;21.90;;;;;;;;;;5011373;28;20419;-77
2023/09/14 09:58:16;;;;;;;23.63;21.93;;;;;;;;;;5011491;28;20518;-77
2023/09/14 10:00:43;;;;;;;25.13;23.03;;;;;;;;;;5012262;28;20504;-77
2023/09/14 10:03:11;;;;;;;23.10;21.30;;;;;;;;;;5011765;28;20447;-77
2023/09/14 10:05:39;;;;;;;21.73;20.27;;;;;;;;;;5011743;28;20445;-77
2023/09/14 10:08:11;;;;;;;21.30;19.57;;;;;;;;;;5012079;28;20522;-77
2023/09/14 10:10:38;;;;;;;21.07;19.77;;;;;;;;;;5011226;28;20912;-78
2023/09/14 10:13:06;;;;;;;21.63;20.13;;;;;;;;;;5011562;28;20492;-78
2023/09/14 10:15:35;;;;;;;21.20;19.90;;;;;;;;;;5012007;28;20453;-78
2023/09/14 10:18:04;;;;;;;22.67;21.10;;;;;;;;;;5011634;28;20435;-77
2023/09/14 10:20:31;;;;;;;22.17;20.60;;;;;;;;;;5011762;28;20548;-77
2023/09/14 10:22:59;;;;;;;23.37;21.60;;;;;;;;;;5012116;28;20476;-78
2023/09/14 10:25:26;;;;;;;21.87;20.47;;;;;;;;;;5011227;28;20925;-77
2023/09/14 10:27:54;;;;;;;21.80;20.23;;;;;;;;;;5011199;28;20449;-78
2023/09/14 10:30:22;;;;;;;22.73;21.10;;;;;;;;;;5011933;28;20452;-77
2023/09/14 10:32:52;;;;;;;24.07;21.90;;;;;;;;;;5011295;28;20842;-78
2023/09/14 10:35:20;;;;;;;22.23;20.70;;;;;;;;;;5011524;28;20961;-77
2023/09/14 10:37:47;;;;;;;23.07;21.27;;;;;;;;;;5010135;28;20452;-78
2023/09/14 10:40:15;;;;;;;23.50;21.30;;;;;;;;;;5011726;28;20525;-78
2023/09/14 10:42:42;;;;;;;23.00;21.30;;;;;;;;;;5011622;28;20523;-78
2023/09/14 10:45:10;;;;;;;22.13;20.63;;;;;;;;;;5011514;28;20507;-78
2023/09/14 10:47:38;;;;;;;22.87;21.30;;;;;;;;;;5010547;28;20979;-78
2023/09/14 10:50:07;;;;;;;21.63;20.33;;;;;;;;;;5011610;28;20427;-77
2023/09/14 10:52:37;;;;;;;21.83;20.20;;;;;;;;;;5011903;28;20470;-77
2023/09/14 10:55:07;;;;;;;22.47;21.07;;;;;;;;;;5011587;28;20427;-77
2023/09/14 10:57:34;;;;;;;23.83;22.07;;;;;;;;;;5011053;28;20435;-77
2023/09/14 11:00:04;;;;;;;23.03;21.60;;;;;;;;;;5011276;28;20930;-78
2023/09/14 11:02:50;;;;;;;23.33;21.47;;;;;;;;;;5011400;28;20479;-77
2023/09/14 11:05:19;;;;;;;22.50;21.10;;;;;;;;;;5011274;28;20445;-77
2023/09/14 11:07:48;;;;;;;22.80;21.10;;;;;;;;;;5011164;28;20839;-78
2023/09/14 11:10:16;;;;;;;23.33;21.57;;;;;;;;;;5012879;28;20991;-77
2023/09/14 11:12:44;;;;;;;23.03;21.43;;;;;;;;;;5015346;28;20570;-77
2023/09/14 11:15:12;;;;;;;25.13;22.70;;;;;;;;;;5015153;28;20538;-77
2023/09/14 11:17:42;;;;;;;22.97;21.37;;;;;;;;;;5014632;28;20452;-78
2023/09/14 11:20:35;;;;;;;23.70;21.83;;;;;;;;;;5014989;28;20452;-78
2023/09/14 11:23:03;;;;;;;23.53;21.90;;;;;;;;;;5014586;28;20469;-77
2023/09/14 11:25:32;;;;;;;22.73;21.33;;;;;;;;;;5014823;28;20555;-77
2023/09/14 11:27:59;;;;;;;24.10;22.40;;;;;;;;;;5014205;28;20460;-78
2023/09/14 11:30:27;;;;;;;24.40;22.63;;;;;;;;;;5014837;28;20463;-76
2023/09/14 11:32:55;;;;;;;24.60;22.70;;;;;;;;;;5014384;28;20878;-77
2023/09/14 11:35:33;;;;;;;23.80;22.30;;;;;;;;;;5014799;28;20456;-77
2023/09/14 11:38:01;;;;;;;23.70;22.07;;;;;;;;;;5012979;28;20432;-77
2023/09/14 11:40:31;;;;;;;23.63;21.97;;;;;;;;;;5014592;28;20488;-77
2023/09/14 11:43:20;;;;;;;23.20;21.60;;;;;;;;;;5014542;28;20464;-78
2023/09/14 11:45:47;;;;;;;25.10;23.40;;;;;;;;;;5013831;28;20443;-77
2023/09/14 11:48:15;;;;;;;24.20;22.30;;;;;;;;;;5014070;28;20437;-78
2023/09/14 11:50:45;;;;;;;23.30;21.80;;;;;;;;;;5014577;28;20460;-78
2023/09/14 11:53:13;;;;;;;24.30;22.30;;;;;;;;;;5014390;28;20499;-78
2023/09/14 11:55:41;;;;;;;23.83;22.33;;;;;;;;;;5014066;28;20854;-78
2023/09/14 11:58:08;;;;;;;25.07;22.97;;;;;;;;;;5014395;28;20430;-78
2023/09/14 12:00:39;;;;;;;25.13;22.70;;;;;;;;;;5014431;28;20449;-77
2023/09/14 12:03:07;;;;;;;25.17;23.07;;;;;;;;;;5013882;28;20491;-77
2023/09/14 12:05:35;;;;;;;23.67;22.07;;;;;;;;;;5014200;28;20808;-79
2023/09/14 12:08:08;;;;;;;24.90;23.10;;;;;;;;;;5013899;28;20453;-78
2023/09/14 12:10:35;;;;;;;24.90;23.20;;;;;;;;;;5014531;28;20433;-77
2023/09/14 12:13:10;;;;;;;24.70;22.90;;;;;;;;;;5014079;28;20507;-77
2023/09/14 12:15:37;;;;;;;24.73;22.93;;;;;;;;;;5013844;28;20503;-77
2023/09/14 12:18:04;;;;;;;26.03;24.13;;;;;;;;;;5013530;28;20786;-77
2023/09/14 12:20:34;;;;;;;24.80;23.00;;;;;;;;;;5013871;28;20463;-78
2023/09/14 12:23:01;;;;;;;24.70;23.00;;;;;;;;;;5013811;28;20542;-77
2023/09/14 12:25:28;;;;;;;23.93;22.33;;;;;;;;;;5013995;28;20448;-78
2023/09/14 12:27:55;;;;;;;24.63;22.73;;;;;;;;;;5013524;28;20448;-78
2023/09/14 12:30:24;;;;;;;25.87;23.73;;;;;;;;;;5013814;28;20750;-78
2023/09/14 12:32:51;;;;;;;24.33;22.53;;;;;;;;;;5012089;28;20591;-78
2023/09/14 12:35:18;;;;;;;24.40;22.70;;;;;;;;;;5012983;28;20431;-78
2023/09/14 12:37:46;;;;;;;25.40;23.20;;;;;;;;;;5011713;28;20511;-77
2023/09/14 12:40:13;;;;;;;24.43;22.60;;;;;;;;;;5013372;28;20497;-77
2023/09/14 12:42:42;;;;;;;26.27;23.77;;;;;;;;;;5012761;28;20558;-77
2023/09/14 12:45:12;;;;;;;25.93;23.77;;;;;;;;;;5013134;28;20415;-77
2023/09/14 12:47:40;;;;;;;23.97;22.37;;;;;;;;;;5012995;28;20473;-78
2023/09/14 12:50:14;;;;;;;24.47;22.67;;;;;;;;;;5013224;28;20427;-78
2023/09/14 12:52:42;;;;;;;24.60;22.80;;;;;;;;;;5013031;28;20561;-78
2023/09/14 12:55:13;;;;;;;25.60;23.80;;;;;;;;;;5011170;28;21535;-78
2023/09/14 12:57:40;;;;;;;25.40;23.50;;;;;;;;;;5012242;28;20423;-79
2023/09/14 13:00:11;;;;;;;24.80;22.90;;;;;;;;;;5008395;28;20460;-78
2023/09/14 13:02:39;;;;;;;24.93;23.13;;;;;;;;;;5012485;28;20447;-78
2023/09/14 13:05:09;;;;;;;24.23;22.43;;;;;;;;;;5006467;28;20552;-79
2023/09/14 13:07:36;;;;;;;25.17;23.50;;;;;;;;;;4992091;28;20452;-78
2023/09/14 13:10:10;;;;;;;25.00;23.20;;;;;;;;;;4991191;28;20465;-77
2023/09/14 13:12:37;;;;;;;25.00;23.20;;;;;;;;;;4992607;28;20500;-79
2023/09/14 13:15:11;;;;;;;24.70;23.10;;;;;;;;;;4992486;28;20532;-77
2023/09/14 13:17:38;;;;;;;24.70;22.90;;;;;;;;;;4992270;28;20525;-77
2023/09/14 13:20:09;;;;;;;24.97;23.37;;;;;;;;;;4992098;28;20441;-78
2023/09/14 13:22:37;;;;;;;24.63;23.13;;;;;;;;;;4992870;28;20466;-78
2023/09/14 13:25:05;;;;;;;25.67;23.43;;;;;;;;;;4992496;28;20424;-77
2023/09/14 13:27:34;;;;;;;25.00;23.30;;;;;;;;;;4991526;28;20541;-78
2023/09/14 13:30:03;;;;;;;26.40;24.20;;;;;;;;;;4991760;28;20481;-79
2023/09/14 13:32:30;;;;;;;25.17;23.43;;;;;;;;;;4992169;28;20452;-78
2023/09/14 13:34:57;;;;;;;25.50;23.70;;;;;;;;;;4993130;28;20484;-76
2023/09/14 13:37:24;;;;;;;24.30;22.63;;;;;;;;;;5002991;28;20456;-77
2023/09/14 13:39:52;;;;;;;26.00;23.73;;;;;;;;;;5011678;28;20430;-79
2023/09/14 13:42:19;;;;;;;24.30;22.50;;;;;;;;;;5010921;28;20492;-78
2023/09/14 13:44:46;;;;;;;25.60;23.17;;;;;;;;;;5011397;28;20434;-83
2023/09/14 13:47:13;;;;;;;24.50;22.60;;;;;;;;;;5011763;28;20944;-78
2023/09/14 13:49:40;;;;;;;25.30;23.60;;;;;;;;;;5011488;28;20510;-77
2023/09/14 13:52:07;;;;;;;24.20;22.30;;;;;;;;;;5011380;28;21107;-76
2023/09/14 13:54:34;;;;;;;24.73;22.90;;;;;;;;;;5011339;28;20526;-77
2023/09/14 13:57:03;;;;;;;25.33;23.27;;;;;;;;;;5010514;28;20452;-77
2023/09/14 13:59:30;;;;;;;24.33;22.83;;;;;;;;;;5010507;28;20477;-78
2023/09/14 14:01:58;;;;;;;23.90;22.40;;;;;;;;;;5011010;28;20884;-78
2023/09/14 14:04:25;;;;;;;24.37;22.53;;;;;;;;;;5010414;28;21027;-78
2023/09/14 14:06:53;;;;;;;24.73;23.03;;;;;;;;;;5001983;28;20465;-77
2023/09/14 14:09:21;;;;;;;24.27;22.57;;;;;;;;;;5010935;28;20553;-77
2023/09/14 14:11:48;;;;;;;24.53;22.73;;;;;;;;;;5009349;28;20515;-83
2023/09/14 14:14:16;;;;;;;24.40;22.70;;;;;;;;;;4997061;28;20448;-77
2023/09/14 14:16:44;;;;;;;25.10;23.10;;;;;;;;;;4991743;28;20457;-77
2023/09/14 14:19:13;;;;;;;23.57;22.07;;;;;;;;;;4990926;28;20516;-77
2023/09/14 14:21:40;;;;;;;24.27;22.60;;;;;;;;;;4992216;28;20448;-77